createdAt,value
2018-08-09T00:00:20.680Z,18.90
2018-08-09T00:02:49.027Z,18.90
2018-08-09T00:05:17.545Z,18.80
2018-08-09T00:07:46.239Z,18.80
2018-08-09T00:10:14.824Z,18.80
2018-08-09T00:12:43.761Z,18.80
2018-08-09T00:15:12.364Z,18.80
2018-08-09T00:17:41.294Z,18.80
2018-08-09T00:20:09.962Z,18.70
2018-08-09T00:22:38.440Z,18.70
2018-08-09T00:25:07.261Z,18.70
2018-08-09T00:27:35.939Z,18.60
2018-08-09T00:30:05.424Z,18.60
2018-08-09T00:32:33.969Z,18.60
2018-08-09T00:35:02.680Z,18.60
2018-08-09T00:37:31.139Z,18.60
2018-08-09T00:39:59.737Z,18.60
2018-08-09T00:42:28.173Z,18.50
2018-08-09T00:44:56.809Z,18.50
2018-08-09T00:47:25.328Z,18.60
2018-08-09T00:49:55.295Z,18.50
2018-08-09T00:52:23.689Z,18.50
2018-08-09T00:54:52.112Z,18.50
2018-08-09T00:57:20.660Z,18.50
2018-08-09T00:59:49.203Z,18.40
2018-08-09T01:02:17.808Z,18.40
2018-08-09T01:04:46.522Z,18.40
2018-08-09T01:07:15.226Z,18.40
2018-08-09T01:09:43.847Z,18.40
2018-08-09T01:12:12.436Z,18.30
2018-08-09T01:14:41.005Z,18.30
2018-08-09T01:17:09.808Z,18.40
2018-08-09T01:19:38.300Z,18.30
2018-08-09T01:22:06.967Z,18.30
2018-08-09T01:24:35.488Z,18.30
2018-08-09T01:27:03.874Z,18.30
2018-08-09T01:29:32.165Z,18.20
2018-08-09T01:32:00.777Z,18.30
2018-08-09T01:34:29.172Z,18.20
2018-08-09T01:36:57.574Z,18.30
2018-08-09T01:39:26.053Z,18.20
2018-08-09T01:42:06.309Z,18.20
2018-08-09T01:44:34.775Z,18.20
2018-08-09T01:47:03.347Z,18.20
2018-08-09T01:49:31.936Z,18.20
2018-08-09T01:52:00.381Z,18.20
2018-08-09T01:54:29.132Z,18.10
2018-08-09T01:56:57.580Z,18.10
2018-08-09T01:59:26.043Z,18.10
2018-08-09T02:01:54.432Z,18.10
2018-08-09T02:04:22.792Z,18.10
2018-08-09T02:06:51.260Z,18.10
2018-08-09T02:09:25.133Z,18.10
2018-08-09T02:11:53.611Z,18.10
2018-08-09T02:14:22.102Z,18.00
2018-08-09T02:16:50.483Z,18.10
2018-08-09T02:19:19.196Z,18.00
2018-08-09T02:21:47.677Z,18.00
2018-08-09T02:24:16.189Z,18.00
2018-08-09T02:26:44.728Z,18.00
2018-08-09T02:29:13.248Z,17.90
2018-08-09T02:31:41.859Z,18.00
2018-08-09T02:34:10.413Z,18.00
2018-08-09T02:36:38.913Z,18.00
2018-08-09T02:39:08.771Z,18.00
2018-08-09T02:41:37.177Z,17.90
2018-08-09T02:44:05.729Z,17.90
2018-08-09T02:46:34.150Z,17.90
2018-08-09T02:49:02.644Z,17.90
2018-08-09T02:51:31.120Z,17.90
2018-08-09T02:53:59.645Z,17.80
2018-08-09T02:56:28.156Z,17.80
2018-08-09T02:58:56.805Z,17.80
2018-08-09T03:01:25.289Z,17.80
2018-08-09T03:03:53.739Z,17.80
2018-08-09T03:06:22.184Z,17.80
2018-08-09T03:08:50.578Z,17.80
2018-08-09T03:11:19.308Z,17.80
2018-08-09T03:13:47.746Z,17.80
2018-08-09T03:16:16.207Z,17.80
2018-08-09T03:18:44.680Z,17.80
2018-08-09T03:21:13.246Z,17.80
2018-08-09T03:23:41.803Z,17.80
2018-08-09T03:26:10.281Z,17.80
2018-08-09T03:28:38.659Z,17.80
2018-08-09T03:31:07.458Z,17.80
2018-08-09T03:33:35.871Z,17.80
2018-08-09T03:36:04.305Z,17.80
2018-08-09T03:38:32.714Z,17.80
2018-08-09T03:41:01.128Z,17.80
2018-08-09T03:43:29.589Z,17.80
2018-08-09T03:45:58.113Z,17.90
2018-08-09T03:48:26.523Z,17.90
2018-08-09T03:50:54.963Z,17.80
2018-08-09T03:53:23.332Z,17.90
2018-08-09T03:55:51.796Z,17.90
2018-08-09T03:58:20.184Z,17.90
2018-08-09T04:00:48.627Z,17.90
2018-08-09T04:03:17.079Z,17.90
2018-08-09T04:05:45.550Z,17.90
2018-08-09T04:08:14.011Z,17.90
2018-08-09T04:10:42.384Z,17.90
2018-08-09T04:13:10.884Z,17.90
2018-08-09T04:15:39.362Z,17.90
2018-08-09T04:18:07.868Z,17.90
2018-08-09T04:20:36.332Z,17.90
2018-08-09T04:23:04.716Z,17.90
2018-08-09T04:25:33.131Z,17.90
2018-08-09T04:28:01.656Z,18.00
2018-08-09T04:30:30.165Z,18.00
2018-08-09T04:32:58.539Z,18.00
2018-08-09T04:35:27.253Z,18.10
2018-08-09T04:37:55.744Z,18.20
2018-08-09T04:40:24.524Z,18.20
2018-08-09T04:42:53.071Z,18.20
2018-08-09T04:45:21.792Z,18.30
2018-08-09T04:47:50.515Z,18.30
2018-08-09T04:50:18.937Z,18.40
2018-08-09T04:52:47.688Z,18.40
2018-08-09T04:55:16.185Z,18.50
2018-08-09T04:57:44.555Z,18.50
2018-08-09T05:00:13.108Z,18.50
2018-08-09T05:02:41.604Z,18.60
2018-08-09T05:05:10.084Z,18.60
2018-08-09T05:10:13.887Z,18.70
2018-08-09T05:12:43.280Z,18.70
2018-08-09T05:15:13.626Z,18.70
2018-08-09T05:17:42.384Z,18.80
2018-08-09T05:20:11.093Z,18.80
2018-08-09T05:22:40.028Z,18.80
2018-08-09T05:25:08.967Z,18.80
2018-08-09T05:27:38.913Z,18.80
2018-08-09T05:30:08.057Z,18.80
2018-08-09T05:32:38.100Z,18.90
2018-08-09T05:35:08.140Z,19.00
2018-08-09T05:37:37.427Z,19.00
2018-08-09T05:40:06.003Z,19.10
2018-08-09T05:42:34.780Z,19.10
2018-08-09T05:45:03.831Z,19.20
2018-08-09T05:47:32.393Z,19.20
2018-08-09T05:50:00.946Z,19.30
2018-08-09T05:52:29.357Z,19.40
2018-08-09T05:54:58.166Z,19.50
2018-08-09T05:57:26.713Z,19.50
2018-08-09T05:59:55.123Z,19.60
2018-08-09T06:02:23.660Z,19.70
2018-08-09T06:04:52.225Z,19.80
2018-08-09T06:07:20.863Z,19.80
2018-08-09T06:09:49.616Z,19.90
2018-08-09T06:12:18.062Z,20.00
2018-08-09T06:14:46.608Z,20.10
2018-08-09T06:17:14.976Z,20.20
2018-08-09T06:19:43.404Z,20.20
2018-08-09T06:22:11.942Z,20.30
2018-08-09T06:24:40.715Z,20.30
2018-08-09T06:27:09.163Z,20.30
2018-08-09T06:29:37.675Z,20.30
2018-08-09T06:32:06.613Z,20.40
2018-08-09T06:34:34.965Z,20.40
2018-08-09T06:37:03.384Z,20.50
2018-08-09T06:39:31.937Z,20.50
2018-08-09T06:42:03.462Z,20.50
2018-08-09T06:44:32.133Z,20.50
2018-08-09T06:47:00.587Z,20.60
2018-08-09T06:49:29.033Z,20.50
2018-08-09T06:51:57.536Z,20.60
2018-08-09T06:54:25.964Z,20.60
2018-08-09T06:56:54.589Z,20.60
2018-08-09T06:59:23.108Z,20.90
2018-08-09T07:01:51.892Z,20.80
2018-08-09T07:04:20.297Z,20.90
2018-08-09T07:06:48.653Z,21.00
2018-08-09T07:09:17.164Z,21.10
2018-08-09T07:11:45.780Z,21.20
2018-08-09T07:14:14.423Z,21.30
2018-08-09T07:16:42.834Z,21.30
2018-08-09T07:19:11.232Z,21.40
2018-08-09T07:21:39.576Z,21.40
2018-08-09T07:24:08.801Z,21.40
2018-08-09T07:26:37.247Z,21.50
2018-08-09T07:29:05.708Z,21.50
2018-08-09T07:31:34.060Z,21.60
2018-08-09T07:34:02.388Z,21.60
2018-08-09T07:36:30.924Z,21.70
2018-08-09T07:38:59.232Z,21.60
2018-08-09T07:41:27.709Z,21.70
2018-08-09T07:43:56.147Z,21.70
2018-08-09T07:46:24.544Z,21.80
2018-08-09T07:48:53.035Z,21.80
2018-08-09T07:51:21.780Z,21.90
2018-08-09T07:53:50.156Z,22.00
2018-08-09T07:56:18.511Z,22.10
2018-08-09T07:58:46.851Z,22.10
2018-08-09T08:01:15.240Z,22.20
2018-08-09T08:03:43.568Z,22.40
2018-08-09T08:06:12.051Z,22.40
2018-08-09T08:08:40.321Z,22.40
2018-08-09T08:11:08.717Z,22.50
2018-08-09T08:13:37.040Z,22.50
2018-08-09T08:16:05.559Z,22.60
2018-08-09T08:18:33.880Z,22.70
2018-08-09T08:21:02.183Z,22.80
2018-08-09T08:23:30.497Z,22.90
2018-08-09T08:25:58.798Z,22.90
2018-08-09T08:28:33.897Z,23.00
2018-08-09T08:31:02.268Z,23.00
2018-08-09T08:33:30.557Z,23.00
2018-08-09T08:35:58.952Z,23.20
2018-08-09T08:38:27.407Z,23.10
2018-08-09T08:40:55.756Z,23.10
2018-08-09T08:43:24.377Z,23.10
2018-08-09T08:45:52.663Z,23.30
2018-08-09T08:48:21.081Z,23.30
2018-08-09T08:50:49.360Z,23.40
2018-08-09T08:53:20.032Z,23.40
2018-08-09T08:55:48.327Z,23.50
2018-08-09T08:58:16.892Z,23.50
2018-08-09T09:00:45.496Z,23.60
2018-08-09T09:03:13.763Z,23.60
2018-08-09T09:05:42.064Z,23.50
2018-08-09T09:08:10.427Z,23.70
2018-08-09T09:10:38.742Z,23.80
2018-08-09T09:13:07.332Z,23.90
2018-08-09T09:15:35.664Z,23.80
2018-08-09T09:18:04.273Z,23.80
2018-08-09T09:20:32.536Z,23.70
2018-08-09T09:23:00.953Z,23.70
2018-08-09T09:25:29.282Z,23.70
2018-08-09T09:27:57.592Z,23.60
2018-08-09T09:30:26.028Z,23.70
2018-08-09T09:32:54.352Z,23.60
2018-08-09T09:35:22.759Z,23.50
2018-08-09T09:37:51.072Z,23.50
2018-08-09T09:40:19.352Z,23.40
2018-08-09T09:42:47.690Z,23.30
2018-08-09T09:45:16.020Z,23.30
2018-08-09T09:47:44.408Z,23.20
2018-08-09T09:50:12.801Z,23.30
2018-08-09T09:52:41.307Z,23.30
2018-08-09T09:55:09.588Z,23.30
2018-08-09T09:57:38.308Z,23.40
2018-08-09T10:00:12.672Z,23.40
2018-08-09T10:02:41.039Z,23.40
2018-08-09T10:05:09.420Z,23.40
2018-08-09T10:07:37.941Z,23.30
2018-08-09T10:10:06.519Z,23.30
2018-08-09T10:12:35.022Z,23.30
2018-08-09T10:15:03.312Z,23.30
2018-08-09T10:17:31.573Z,23.40
2018-08-09T10:19:59.918Z,23.40
2018-08-09T10:22:28.280Z,23.40
2018-08-09T10:24:56.568Z,23.40
2018-08-09T10:27:25.048Z,23.30
2018-08-09T10:29:53.394Z,23.30
2018-08-09T10:32:21.815Z,23.30
2018-08-09T10:34:50.196Z,23.30
2018-08-09T10:37:18.569Z,23.30
2018-08-09T10:39:46.905Z,23.20
2018-08-09T10:42:15.314Z,23.10
2018-08-09T10:44:43.654Z,23.10
2018-08-09T10:47:12.096Z,23.10
2018-08-09T10:49:40.436Z,23.00
2018-08-09T10:52:11.920Z,22.90
2018-08-09T10:54:40.650Z,22.80
2018-08-09T10:57:08.945Z,22.90
2018-08-09T10:59:37.776Z,22.80
2018-08-09T11:02:06.300Z,22.70
2018-08-09T11:04:34.585Z,22.60
2018-08-09T11:07:02.898Z,22.50
2018-08-09T11:09:31.265Z,22.50
2018-08-09T11:11:59.730Z,22.50
2018-08-09T11:14:28.205Z,22.40
2018-08-09T11:16:56.574Z,22.40
2018-08-09T11:19:25.212Z,22.20
2018-08-09T11:21:53.586Z,22.20
2018-08-09T11:24:21.940Z,22.30
2018-08-09T11:26:50.462Z,22.30
2018-08-09T11:29:19.540Z,22.30
2018-08-09T11:31:48.549Z,22.30
2018-08-09T11:34:18.755Z,22.30
2018-08-09T11:36:47.188Z,22.20
2018-08-09T11:39:15.517Z,22.20
2018-08-09T11:41:44.828Z,22.20
2018-08-09T11:44:14.236Z,22.10
2018-08-09T11:46:42.829Z,22.20
2018-08-09T11:49:13.996Z,22.00
2018-08-09T11:51:46.614Z,22.00
2018-08-09T11:54:15.123Z,21.90
2018-08-09T11:56:43.723Z,22.00
2018-08-09T11:59:17.139Z,22.00
2018-08-09T12:01:55.922Z,22.10
2018-08-09T12:04:24.726Z,22.00
2018-08-09T12:07:01.984Z,22.00
2018-08-09T12:09:37.457Z,21.90
2018-08-09T12:12:12.453Z,21.90
2018-08-09T12:14:42.674Z,21.90
2018-08-09T12:17:11.391Z,22.00
2018-08-09T12:19:39.759Z,21.80
2018-08-09T12:22:08.180Z,21.80
2018-08-09T12:24:37.946Z,21.80
2018-08-09T12:27:06.361Z,21.70
2018-08-09T12:29:34.832Z,21.60
2018-08-09T12:32:03.180Z,21.40
2018-08-09T12:34:31.767Z,21.30
2018-08-09T12:37:00.264Z,21.20
2018-08-09T12:39:28.771Z,21.10
2018-08-09T12:41:57.412Z,21.00
2018-08-09T12:44:25.786Z,21.00
2018-08-09T12:46:54.419Z,20.90
2018-08-09T12:49:22.892Z,20.90
2018-08-09T12:51:51.382Z,20.90
2018-08-09T12:54:19.878Z,20.80
2018-08-09T12:56:48.369Z,20.80
2018-08-09T12:59:16.814Z,20.80
2018-08-09T13:01:45.243Z,20.90
2018-08-09T13:04:13.782Z,20.70
2018-08-09T13:06:42.705Z,20.60
2018-08-09T13:09:12.511Z,20.60
2018-08-09T13:11:40.969Z,20.70
2018-08-09T13:14:09.845Z,20.70
2018-08-09T13:16:38.288Z,20.70
2018-08-09T13:19:07.228Z,20.40
2018-08-09T13:21:35.962Z,20.20
2018-08-09T13:24:04.578Z,20.30
2018-08-09T13:26:33.008Z,20.20
2018-08-09T13:29:01.518Z,20.10
2018-08-09T13:31:30.344Z,20.20
2018-08-09T13:33:58.958Z,20.20
2018-08-09T13:36:27.599Z,20.20
2018-08-09T13:38:56.686Z,20.10
2018-08-09T13:41:25.762Z,20.00
2018-08-09T13:43:55.568Z,19.90
2018-08-09T13:46:24.444Z,20.00
2018-08-09T13:48:52.989Z,20.00
2018-08-09T13:51:21.568Z,20.00
2018-08-09T13:53:49.969Z,20.00
2018-08-09T13:56:18.465Z,20.20
2018-08-09T13:58:46.952Z,20.30
2018-08-09T14:01:15.496Z,20.20
2018-08-09T14:03:44.249Z,20.30
2018-08-09T14:06:12.832Z,20.30
2018-08-09T14:08:41.549Z,20.30
2018-08-09T14:11:10.296Z,20.30
2018-08-09T14:13:39.965Z,20.30
2018-08-09T14:16:09.145Z,20.30
2018-08-09T14:18:38.067Z,20.20
2018-08-09T14:21:06.741Z,20.00
2018-08-09T14:23:35.591Z,19.80
2018-08-09T14:26:04.490Z,19.60
2018-08-09T14:28:33.249Z,19.50
2018-08-09T14:31:01.672Z,19.50
2018-08-09T14:33:30.421Z,19.40
2018-08-09T14:35:58.872Z,19.40
2018-08-09T14:38:27.480Z,19.40
2018-08-09T14:40:55.869Z,19.40
2018-08-09T14:43:24.493Z,19.40
2018-08-09T14:45:53.175Z,19.40
2018-08-09T14:48:21.639Z,19.30
2018-08-09T14:50:50.574Z,19.30
2018-08-09T14:53:19.175Z,19.40
2018-08-09T14:55:48.384Z,19.40
2018-08-09T14:58:16.914Z,19.40
2018-08-09T15:00:45.233Z,19.40
2018-08-09T15:03:13.729Z,19.50
2018-08-09T15:05:42.615Z,19.60
2018-08-09T15:08:11.257Z,19.60
2018-08-09T15:10:39.829Z,19.60
2018-08-09T15:13:08.775Z,19.50
2018-08-09T15:15:37.575Z,19.60
2018-08-09T15:18:06.411Z,19.60
2018-08-09T15:20:34.891Z,19.60
2018-08-09T15:23:03.296Z,19.60
2018-08-09T15:25:48.523Z,19.60
2018-08-09T15:28:17.557Z,19.50
2018-08-09T15:30:46.137Z,19.50
2018-08-09T15:33:21.696Z,19.50
2018-08-09T15:35:50.645Z,19.50
2018-08-09T15:38:19.387Z,19.60
2018-08-09T15:40:47.798Z,19.70
2018-08-09T15:43:16.988Z,19.80
2018-08-09T15:45:45.618Z,19.80
2018-08-09T15:48:14.499Z,19.80
2018-08-09T15:50:43.114Z,19.80
2018-08-09T15:53:11.743Z,19.90
2018-08-09T15:55:40.597Z,20.00
2018-08-09T15:58:09.249Z,20.10
2018-08-09T16:00:37.765Z,20.20
2018-08-09T16:03:06.796Z,20.30
2018-08-09T16:05:35.296Z,20.40
2018-08-09T16:08:04.192Z,20.50
2018-08-09T16:10:32.753Z,20.60
2018-08-09T16:13:01.418Z,20.60
2018-08-09T16:15:29.865Z,20.60
2018-08-09T16:17:58.421Z,20.50
2018-08-09T16:20:26.945Z,20.60
2018-08-09T16:22:55.445Z,20.60
2018-08-09T16:25:23.928Z,20.40
2018-08-09T16:27:53.540Z,20.50
2018-08-09T16:30:25.883Z,20.50
2018-08-09T16:32:54.708Z,20.50
2018-08-09T16:35:24.017Z,20.50
2018-08-09T16:37:52.497Z,20.50
2018-08-09T16:40:22.483Z,20.60
2018-08-09T16:42:51.012Z,20.70
2018-08-09T16:45:20.661Z,20.70
2018-08-09T16:47:49.576Z,20.80
2018-08-09T16:50:20.063Z,20.80
2018-08-09T16:52:49.338Z,20.90
2018-08-09T16:55:19.050Z,21.00
2018-08-09T16:57:47.599Z,21.10
2018-08-09T17:00:18.444Z,21.10
2018-08-09T17:02:46.936Z,21.10
2018-08-09T17:05:18.177Z,21.20
2018-08-09T17:07:46.817Z,21.30
2018-08-09T17:10:19.664Z,21.30
2018-08-09T17:12:48.144Z,21.30
2018-08-09T17:15:20.196Z,21.30
2018-08-09T17:17:48.587Z,21.40
2018-08-09T17:20:20.197Z,21.40
2018-08-09T17:22:48.669Z,21.40
2018-08-09T17:25:17.131Z,21.40
2018-08-09T17:27:46.617Z,21.50
2018-08-09T17:30:16.268Z,21.50
2018-08-09T17:32:44.730Z,21.50
2018-08-09T17:35:14.347Z,21.50
2018-08-09T17:37:42.887Z,21.00
2018-08-09T17:40:14.804Z,20.50
2018-08-09T17:42:43.890Z,19.80
2018-08-09T17:45:13.708Z,19.60
2018-08-09T17:47:42.244Z,19.00
2018-08-09T17:50:11.438Z,18.90
2018-08-09T17:52:40.074Z,18.80
2018-08-09T17:55:11.629Z,18.70
2018-08-09T17:57:40.981Z,18.40
2018-08-09T18:00:13.609Z,18.10
2018-08-09T18:02:42.084Z,18.20
2018-08-09T18:05:10.845Z,18.20
2018-08-09T18:07:39.251Z,17.90
2018-08-09T18:10:11.417Z,17.90
2018-08-09T18:12:40.025Z,17.90
2018-08-09T18:15:08.597Z,17.90
2018-08-09T18:17:37.972Z,18.10
2018-08-09T18:20:09.945Z,18.10
2018-08-09T18:22:39.470Z,18.10
2018-08-09T18:25:08.916Z,18.00
2018-08-09T18:27:37.595Z,17.90
2018-08-09T18:30:08.253Z,17.90
2018-08-09T18:32:37.022Z,18.00
2018-08-09T18:35:06.792Z,18.00
2018-08-09T18:37:35.615Z,17.90
2018-08-09T18:40:04.988Z,17.90
2018-08-09T18:42:33.912Z,17.90
2018-08-09T18:45:02.346Z,17.90
2018-08-09T18:47:30.867Z,17.90
2018-08-09T18:49:59.275Z,17.90
2018-08-09T18:52:45.853Z,17.90
2018-08-09T18:55:15.798Z,17.70
2018-08-09T18:57:44.270Z,17.60
2018-08-09T19:00:28.868Z,17.60
2018-08-09T19:02:57.550Z,17.60
2018-08-09T19:05:26.762Z,17.60
2018-08-09T19:07:55.353Z,17.60
2018-08-09T19:10:25.814Z,17.60
2018-08-09T19:12:55.452Z,17.60
2018-08-09T19:15:23.999Z,17.60
2018-08-09T19:17:52.903Z,17.70
2018-08-09T19:20:24.567Z,17.70
2018-08-09T19:22:53.186Z,17.70
2018-08-09T19:25:21.860Z,17.70
2018-08-09T19:27:50.404Z,17.70
2018-08-09T19:30:20.450Z,17.60
2018-08-09T19:32:49.382Z,17.40
2018-08-09T19:35:19.614Z,17.40
2018-08-09T19:37:48.791Z,17.40
2018-08-09T19:40:19.111Z,17.40
2018-08-09T19:42:47.608Z,17.40
2018-08-09T19:45:17.165Z,17.40
2018-08-09T19:47:45.668Z,17.50
2018-08-09T19:50:16.460Z,17.60
2018-08-09T19:52:44.972Z,17.50
2018-08-09T19:55:25.063Z,17.40
2018-08-09T19:57:54.016Z,17.50
2018-08-09T20:00:26.298Z,17.60
2018-08-09T20:02:55.756Z,17.60
2018-08-09T20:05:24.613Z,17.60
2018-08-09T20:07:53.276Z,17.50
2018-08-09T20:10:21.934Z,17.50
2018-08-09T20:12:50.399Z,17.50
2018-08-09T20:15:20.510Z,17.50
2018-08-09T20:17:49.120Z,17.50
2018-08-09T20:20:19.126Z,17.50
2018-08-09T20:22:47.666Z,17.50
2018-08-09T20:25:16.366Z,17.50
2018-08-09T20:27:45.377Z,17.40
2018-08-09T20:30:15.761Z,17.40
2018-08-09T20:32:45.147Z,17.30
2018-08-09T20:35:15.498Z,17.20
2018-08-09T20:37:45.151Z,17.20
2018-08-09T20:40:14.194Z,17.20
2018-08-09T20:42:43.231Z,17.20
2018-08-09T20:45:14.839Z,17.00
2018-08-09T20:47:43.325Z,16.90
2018-08-09T20:50:14.906Z,16.80
2018-08-09T20:52:44.428Z,16.70
2018-08-09T20:55:12.954Z,16.60
2018-08-09T20:57:42.459Z,16.60
2018-08-09T21:00:15.640Z,16.50
2018-08-09T21:02:54.836Z,16.50
2018-08-09T21:05:39.444Z,16.20
2018-08-09T21:08:08.432Z,16.30
2018-08-09T21:10:39.948Z,16.30
2018-08-09T21:13:08.655Z,16.20
2018-08-09T21:15:37.598Z,16.20
2018-08-09T21:18:21.371Z,16.20
2018-08-09T21:21:13.498Z,16.20
2018-08-09T21:23:42.132Z,16.20
2018-08-09T21:26:10.524Z,16.00
2018-08-09T21:28:38.918Z,16.00
2018-08-09T21:31:07.508Z,16.00
2018-08-09T21:33:36.828Z,15.90
2018-08-09T21:36:11.306Z,15.90
2018-08-09T21:38:40.305Z,16.00
2018-08-09T21:41:08.728Z,16.00
2018-08-09T21:43:37.047Z,15.90
2018-08-09T21:46:05.520Z,16.00
2018-08-09T21:48:33.869Z,15.90
2018-08-09T21:51:03.210Z,15.90
2018-08-09T21:53:32.647Z,15.90
2018-08-09T21:56:04.397Z,15.90
2018-08-09T21:58:33.329Z,16.00
2018-08-09T22:01:04.745Z,16.00
2018-08-09T22:03:34.976Z,16.00
2018-08-09T22:06:08.788Z,16.00
2018-08-09T22:08:42.648Z,16.00
2018-08-09T22:11:17.487Z,16.00
2018-08-09T22:13:51.722Z,16.00
2018-08-09T22:16:25.777Z,16.00
2018-08-09T22:19:02.209Z,16.00
2018-08-09T22:21:36.437Z,16.00
2018-08-09T22:24:04.854Z,16.00
2018-08-09T22:26:33.267Z,16.10
2018-08-09T22:29:01.612Z,16.10
2018-08-09T22:31:30.226Z,16.20
2018-08-09T22:33:59.076Z,16.20
2018-08-09T22:36:28.543Z,16.00
2018-08-09T22:38:58.754Z,16.10
2018-08-09T22:41:27.818Z,16.20
2018-08-09T22:43:56.596Z,16.10
2018-08-09T22:46:26.085Z,16.10
2018-08-09T22:48:55.156Z,16.10
2018-08-09T22:51:24.411Z,16.20
2018-08-09T22:53:53.018Z,16.20
2018-08-09T22:56:21.409Z,16.30
2018-08-09T22:58:49.748Z,16.20
2018-08-09T23:01:18.127Z,16.20
2018-08-09T23:03:48.013Z,16.20
2018-08-09T23:06:16.391Z,16.20
2018-08-09T23:08:46.888Z,16.20
2018-08-09T23:11:15.613Z,16.20
2018-08-09T23:13:44.566Z,16.10
2018-08-09T23:16:12.948Z,16.10
2018-08-09T23:18:41.482Z,16.10
2018-08-09T23:21:09.955Z,16.00
2018-08-09T23:23:38.436Z,16.00
2018-08-09T23:26:06.929Z,16.00
2018-08-09T23:28:35.443Z,16.00
2018-08-09T23:31:03.764Z,16.00
2018-08-09T23:33:32.460Z,16.00
2018-08-09T23:36:01.714Z,16.00
2018-08-09T23:38:31.129Z,16.10
2018-08-09T23:40:59.713Z,16.10
2018-08-09T23:43:28.601Z,16.00
2018-08-09T23:45:57.967Z,16.00
2018-08-09T23:48:27.757Z,16.00
2018-08-09T23:50:56.885Z,16.00
2018-08-09T23:53:27.376Z,15.90
2018-08-09T23:55:56.609Z,15.80
2018-08-09T23:58:26.107Z,15.80
